Time;durP1;ratioP1;P1;durP2;ratioP2;P2;SDS_P1;SDS_P2;PMS_P1;PMS_P2;Temp;Humidity;BMP_temperature;BMP_pressure;BME280_temperature;BME280_humidity;BME280_pressure;Samples;Min_cycle;Max_cycle;Signal;HPM_P1;HPM_P2
2021/11/22 00:01:52;;;;;;;26.88;17.30;;;6.70;76.00;;;5.97;60.82;94475.72;4944110;28;20230;-84
2021/11/22 00:04:22;;;;;;;25.05;15.32;;;6.70;75.10;;;6.02;60.58;94478.66;4943903;28;20223;-83
2021/11/22 00:06:50;;;;;;;24.38;16.00;;;6.70;75.00;;;6.03;60.71;94482.88;4944067;28;20205;-83
2021/11/22 00:09:17;;;;;;;22.23;15.32;;;6.70;75.00;;;6.06;60.65;94479.13;4943163;28;20223;-83
2021/11/22 00:11:48;;;;;;;23.42;15.60;;;6.70;75.00;;;6.02;60.62;94470.84;4941190;28;20203;-82
2021/11/22 00:14:17;;;;;;;24.00;15.15;;;6.80;75.10;;;6.07;60.59;94481.53;4942225;28;20638;-84
2021/11/22 00:16:45;;;;;;;23.88;15.40;;;6.80;75.00;;;6.08;60.63;94483.16;4943890;28;20234;-84
2021/11/22 00:19:14;;;;;;;22.58;15.70;;;6.80;75.10;;;6.08;60.42;94479.75;4927723;28;20233;-84
2021/11/22 00:21:41;;;;;;;24.48;16.05;;;6.90;75.20;;;6.12;60.45;94482.81;4943919;28;20203;-84
2021/11/22 00:24:08;;;;;;;27.25;16.90;;;6.80;75.10;;;6.07;60.59;94478.94;4943738;28;20211;-83
2021/11/22 00:26:36;;;;;;;25.95;17.77;;;6.80;75.00;;;6.05;60.58;94475.72;4927704;28;20210;-84
2021/11/22 00:29:03;;;;;;;24.92;16.38;;;6.80;75.00;;;6.09;60.54;94489.16;4942660;28;20317;-83
2021/11/22 00:31:55;;;;;;;21.83;14.50;;;6.90;75.00;;;6.09;60.55;94505.59;4951469;28;20539;-84
2021/11/22 00:34:47;;;;;;;22.50;14.25;;;6.80;75.00;;;6.12;60.58;94501.84;4949614;28;20308;-84
2021/11/22 00:37:37;;;;;;;23.67;15.18;;;6.80;75.00;;;6.12;60.59;94506.25;4948557;28;20248;-85
2021/11/22 00:40:08;;;;;;;22.77;14.55;;;6.90;75.00;;;6.08;60.29;94500.59;4943084;28;20222;-83
2021/11/22 00:42:38;;;;;;;23.50;15.50;;;6.80;75.00;;;6.12;60.38;94504.44;4943064;28;20269;-84
2021/11/22 00:45:06;;;;;;;20.73;14.38;;;6.80;74.90;;;6.11;60.36;94502.81;4943410;28;20313;-84
2021/11/22 00:47:35;;;;;;;22.73;14.68;;;6.90;75.00;;;6.11;60.34;94496.81;4927010;28;20563;-83
2021/11/22 00:50:07;;;;;;;23.65;15.27;;;6.80;74.90;;;6.08;60.38;94505.78;4939114;29;20231;-84
2021/11/22 00:52:35;;;;;;;23.48;14.55;;;6.80;75.00;;;6.14;60.07;94517.28;4940065;29;20242;-83
2021/11/22 00:55:04;;;;;;;21.60;13.98;;;6.90;75.00;;;6.13;60.51;94524.31;4923996;29;20308;-83
2021/11/22 00:57:31;;;;;;;25.08;16.05;;;6.90;75.00;;;6.12;60.54;94524.47;4955527;28;20230;-84
2021/11/22 00:59:59;;;;;;;22.20;14.68;;;6.90;75.00;;;6.12;60.27;94519.28;4955064;28;20219;-83
2021/11/22 01:02:27;;;;;;;26.70;16.52;;;6.90;75.00;;;6.12;60.57;94514.88;4942450;28;20215;-84
2021/11/22 01:04:54;;;;;;;24.00;16.08;;;6.80;75.00;;;6.11;60.18;94507.22;4942915;28;20226;-84
2021/11/22 01:07:22;;;;;;;26.55;17.15;;;6.90;75.00;;;6.12;60.35;94509.66;4927167;28;20206;-84
2021/11/22 01:09:49;;;;;;;23.90;15.50;;;6.90;75.00;;;6.08;60.35;94493.56;4938651;29;20267;-82
2021/11/22 01:12:16;;;;;;;25.33;16.42;;;6.80;75.00;;;6.09;60.48;94496.97;4919607;29;20207;-83
2021/11/22 01:14:43;;;;;;;24.40;15.95;;;6.80;75.00;;;6.12;60.35;94503.66;4924456;28;20219;-83
2021/11/22 01:17:10;;;;;;;26.02;17.10;;;6.80;75.00;;;6.10;60.55;94493.38;4949011;28;20226;-83
2021/11/22 01:19:38;;;;;;;25.17;16.55;;;6.90;75.10;;;6.11;60.38;94497.63;4942310;28;20210;-83
2021/11/22 01:22:05;;;;;;;26.98;17.25;;;6.90;75.90;;;6.16;60.66;94510.13;4943586;29;20544;-83
2021/11/22 01:24:32;;;;;;;26.63;17.45;;;6.80;75.00;;;6.17;60.60;94504.72;4939116;28;20222;-84
2021/11/22 01:27:00;;;;;;;26.77;16.98;;;6.90;75.10;;;6.15;60.34;94506.72;4956609;28;20662;-84
2021/11/22 01:29:27;;;;;;;28.17;18.63;;;6.80;75.00;;;6.09;60.53;94491.75;4940184;28;20237;-83
2021/11/22 01:31:55;;;;;;;25.80;16.63;;;6.80;75.00;;;6.15;60.28;94506.72;4940473;28;20202;-83
2021/11/22 01:34:22;;;;;;;28.33;18.27;;;6.90;75.10;;;6.13;60.72;94513.88;4940381;28;20273;-83
2021/11/22 01:36:49;;;;;;;25.92;17.63;;;6.90;75.10;;;6.11;60.45;94510.63;4940183;28;20262;-82
2021/11/22 01:39:17;;;;;;;33.78;19.88;;;6.90;75.10;;;6.11;60.58;94507.22;4938870;28;20211;-84
2021/11/22 01:41:44;;;;;;;28.92;18.30;;;6.90;75.10;;;6.07;60.52;94493.75;4940481;28;20211;-82
2021/11/22 01:44:12;;;;;;;26.80;18.08;;;6.90;75.10;;;6.08;60.75;94509.19;4940379;28;20305;-83
2021/11/22 01:46:39;;;;;;;28.00;18.17;;;6.90;75.10;;;6.05;60.69;94506.94;4939825;28;20207;-84
2021/11/22 01:49:06;;;;;;;28.45;18.17;;;6.90;75.10;;;6.07;60.56;94510.19;4937600;28;20210;-83
2021/11/22 01:51:34;;;;;;;28.48;18.52;;;6.90;75.10;;;6.07;60.68;94507.56;4954420;28;20558;-83
2021/11/22 01:54:02;;;;;;;29.38;17.65;;;6.90;75.10;;;6.07;60.51;94511.97;4940944;28;20266;-82
2021/11/22 01:56:29;;;;;;;28.15;17.67;;;6.80;75.10;;;6.01;60.74;94500.47;4945806;28;20226;-83
2021/11/22 01:58:57;;;;;;;30.63;19.95;;;6.80;75.10;;;6.01;61.08;94503.06;4938518;28;20321;-82
2021/11/22 02:01:24;;;;;;;30.33;18.45;;;6.90;75.20;;;6.05;60.97;94519.16;4936811;28;20198;-83
2021/11/22 02:03:52;;;;;;;30.58;19.35;;;6.80;75.20;;;6.05;61.10;94517.38;4942705;28;20631;-83
2021/11/22 02:06:19;;;;;;;32.45;19.60;;;6.80;75.20;;;6.00;61.02;94517.06;4931977;28;20207;-84
2021/11/22 02:08:48;;;;;;;30.63;19.92;;;6.80;75.20;;;6.04;60.74;94526.16;4950171;28;20257;-83
2021/11/22 02:11:15;;;;;;;32.90;20.80;;;6.80;75.20;;;6.00;61.29;94537.09;4944114;28;20213;-83
2021/11/22 02:13:42;;;;;;;34.10;20.83;;;6.80;75.20;;;5.97;61.01;94538.22;4952879;28;20372;-83
2021/11/22 02:16:09;;;;;;;35.58;22.38;;;6.90;75.30;;;5.91;61.19;94531.09;4936706;29;20206;-84
2021/11/22 02:18:37;;;;;;;35.78;22.00;;;6.80;75.30;;;5.97;61.64;94548.63;4949520;28;20316;-83
2021/11/22 02:21:04;;;;;;;39.85;23.73;;;6.80;75.30;;;5.91;61.61;94538.91;4948426;28;20199;-82
2021/11/22 02:23:32;;;;;;;33.03;21.17;;;6.80;75.40;;;5.93;61.55;94549.94;4937748;28;20222;-83
2021/11/22 02:25:59;;;;;;;37.22;21.75;;;6.80;75.50;;;5.92;61.66;94556.16;4942095;28;20206;-83
2021/11/22 02:28:27;;;;;;;36.00;22.00;;;6.80;75.50;;;5.89;61.69;94551.28;4941232;28;20297;-83
2021/11/22 02:30:54;;;;;;;37.30;22.30;;;6.70;75.50;;;5.86;61.89;94551.59;4941197;28;20611;-83
2021/11/22 02:33:24;;;;;;;38.97;22.52;;;6.80;75.60;;;5.85;61.88;94550.00;4940706;28;20565;-83
2021/11/22 02:35:57;;;;;;;39.55;22.38;;;6.70;75.60;;;5.84;62.04;94545.78;4931754;28;20202;-83
2021/11/22 02:38:28;;;;;;;36.67;22.30;;;6.70;75.70;;;5.83;62.04;94547.56;4927006;28;20219;-83
2021/11/22 02:40:58;;;;;;;35.40;20.80;;;6.70;75.80;;;5.84;62.06;94556.19;4935723;29;20263;-83
2021/11/22 02:43:27;;;;;;;35.13;21.17;;;6.70;75.70;;;5.84;61.80;94559.59;4954794;28;20199;-82
2021/11/22 02:45:55;;;;;;;35.92;21.25;;;6.70;75.80;;;5.83;62.09;94557.97;4949602;28;20217;-84
2021/11/22 02:48:24;;;;;;;39.42;23.02;;;6.70;75.80;;;5.80;61.98;94557.50;4936740;28;20741;-84
2021/11/22 02:50:51;;;;;;;37.83;22.10;;;6.60;75.80;;;5.79;61.93;94558.50;4953617;28;20209;-84
2021/11/22 02:53:24;;;;;;;35.53;21.40;;;6.70;75.90;;;5.82;61.97;94569.34;4922543;28;20668;-84
2021/11/22 02:55:56;;;;;;;36.70;21.20;;;6.70;75.90;;;5.83;61.90;94567.56;4938760;28;20425;-83
2021/11/22 02:58:24;;;;;;;34.35;20.60;;;6.70;75.90;;;5.82;62.51;94573.75;4938255;28;20246;-83
2021/11/22 03:00:52;;;;;;;35.45;20.55;;;6.60;75.90;;;5.79;62.18;94567.09;4938110;28;20195;-83
2021/11/22 03:03:27;;;;;;;40.15;21.98;;;6.70;76.00;;;5.77;62.26;94566.44;4938700;28;20309;-84
2021/11/22 03:06:22;;;;;;;35.50;21.05;;;6.70;76.00;;;5.81;62.23;94580.75;4939137;28;20244;-84
2021/11/22 03:08:50;;;;;;;34.90;21.02;;;6.70;76.10;;;5.80;63.11;94579.13;4937092;28;20354;-83
2021/11/22 03:11:19;;;;;;;37.38;22.70;;;6.60;76.00;;;5.79;62.53;94587.13;4939978;28;20199;-84
2021/11/22 03:13:48;;;;;;;37.97;22.35;;;6.70;76.10;;;5.76;62.46;94568.25;4941962;28;20281;-84
2021/11/22 03:16:18;;;;;;;37.30;20.08;;;6.60;76.10;;;5.79;62.53;94587.91;4944722;28;20206;-84
2021/11/22 03:18:46;;;;;;;36.20;20.67;;;6.60;76.10;;;5.78;62.57;94583.69;4943890;28;20317;-83
2021/11/22 03:21:13;;;;;;;38.40;21.52;;;6.70;76.20;;;5.79;62.73;94597.53;4952648;29;20745;-84
2021/11/22 03:23:42;;;;;;;37.47;22.25;;;6.60;76.20;;;5.73;62.58;94589.41;4941458;28;20227;-84
2021/11/22 03:26:09;;;;;;;38.13;22.08;;;6.60;76.20;;;5.75;63.19;94597.06;4942551;28;20557;-82
2021/11/22 03:28:37;;;;;;;34.08;20.60;;;6.70;76.40;;;5.75;62.84;94608.25;4928594;28;20230;-83
2021/11/22 03:31:04;;;;;;;39.60;21.65;;;6.60;76.20;;;5.76;62.57;94593.44;4960430;28;20273;-81
2021/11/22 03:33:32;;;;;;;34.80;20.23;;;6.60;76.30;;;5.75;62.74;94592.66;4928690;28;20689;-81
2021/11/22 03:35:59;;;;;;;37.92;21.90;;;6.60;76.40;;;5.73;63.24;94583.41;4944234;28;20205;-81
2021/11/22 03:38:30;;;;;;;37.13;22.25;;;6.60;76.40;;;5.72;63.11;94592.19;4927352;28;20245;-80
2021/11/22 03:40:59;;;;;;;37.70;21.38;;;6.60;76.50;;;5.66;63.41;94585.06;4959527;28;20206;-81
2021/11/22 03:43:30;;;;;;;40.72;22.52;;;6.60;76.60;;;5.69;63.27;94580.31;4941092;28;20277;-81
2021/11/22 03:45:57;;;;;;;36.88;21.45;;;6.60;76.60;;;5.70;63.58;94589.75;4941246;29;20594;-81
2021/11/22 03:48:25;;;;;;;40.42;22.83;;;6.60;76.60;;;5.68;63.63;94591.69;4937154;28;20211;-81
2021/11/22 03:50:53;;;;;;;37.10;22.05;;;6.60;76.70;;;5.69;63.51;94601.13;4959861;28;20755;-81
2021/11/22 03:53:20;;;;;;;35.40;22.05;;;6.60;76.70;;;5.64;63.32;94602.63;4944083;28;20657;-81
2021/11/22 03:55:48;;;;;;;35.00;20.58;;;6.60;76.80;;;5.69;63.75;94610.72;4928079;28;20261;-80
2021/11/22 03:58:15;;;;;;;35.97;21.27;;;6.60;76.80;;;5.68;64.10;94609.91;4943494;28;20226;-83
2021/11/22 04:00:43;;;;;;;34.90;21.65;;;6.70;76.90;;;5.69;63.42;94621.94;4943957;28;20210;-83
2021/11/22 04:03:10;;;;;;;40.22;21.90;;;6.50;76.70;;;5.68;63.56;94617.72;4944170;28;20203;-83
2021/11/22 04:05:37;;;;;;;40.67;22.58;;;6.60;76.90;;;5.70;63.95;94620.97;4932737;28;20245;-84
2021/11/22 04:08:07;;;;;;;39.72;23.27;;;6.60;76.90;;;5.67;63.82;94617.91;4960101;28;20199;-83
2021/11/22 04:10:36;;;;;;;37.60;21.30;;;6.60;76.90;;;5.69;63.70;94627.16;4958733;28;20620;-84
2021/11/22 04:13:06;;;;;;;39.10;21.48;;;6.50;76.80;;;5.70;63.55;94625.34;4959934;28;20214;-83
2021/11/22 04:15:35;;;;;;;34.42;21.10;;;6.60;76.90;;;5.65;63.70;94622.44;4945133;28;20273;-81
2021/11/22 04:18:04;;;;;;;39.80;22.65;;;6.60;76.90;;;5.68;63.85;94630.72;4954863;28;20210;-82
2021/11/22 04:20:32;;;;;;;33.65;21.08;;;6.60;77.00;;;5.69;63.76;94634.13;4937695;28;20214;-82
2021/11/22 04:22:59;;;;;;;36.53;21.98;;;6.50;76.90;;;5.70;63.52;94638.38;4941052;28;20198;-82
2021/11/22 04:25:27;;;;;;;34.88;20.92;;;6.50;77.00;;;5.69;63.74;94632.34;4953441;28;20238;-83
2021/11/22 04:27:54;;;;;;;33.33;20.52;;;6.60;77.00;;;5.69;63.75;94634.13;4939493;28;20317;-83
2021/11/22 04:30:22;;;;;;;37.42;21.45;;;6.60;77.00;;;5.75;63.53;94649.09;4946912;28;20219;-82
2021/11/22 04:32:49;;;;;;;34.92;19.33;;;6.60;77.00;;;5.76;63.14;94650.69;4948361;28;20195;-83
2021/11/22 04:35:16;;;;;;;32.65;19.27;;;6.60;77.00;;;5.75;63.54;94652.50;4939675;28;20250;-82
2021/11/22 04:37:44;;;;;;;34.67;20.58;;;6.50;76.90;;;5.74;63.72;94656.09;4954216;28;20255;-83
2021/11/22 04:40:16;;;;;;;35.90;19.88;;;6.60;77.00;;;5.80;63.22;94666.78;4933942;28;20262;-84
2021/11/22 04:42:47;;;;;;;33.50;19.55;;;6.60;76.90;;;5.80;63.27;94654.59;4914824;28;20718;-83
2021/11/22 04:45:17;;;;;;;33.38;19.95;;;6.60;76.90;;;5.82;63.57;94654.44;4946436;28;20321;-83
2021/11/22 04:47:46;;;;;;;32.53;19.23;;;6.60;76.90;;;5.79;63.01;94660.78;4939034;28;20205;-82
2021/11/22 04:50:15;;;;;;;33.20;19.10;;;6.60;77.70;;;5.81;63.04;94663.22;4941374;28;20238;-82
2021/11/22 04:52:44;;;;;;;36.25;21.02;;;6.60;76.90;;;5.82;63.10;94663.03;4942308;28;20202;-82
2021/11/22 04:55:14;;;;;;;32.85;19.65;;;6.60;76.90;;;5.83;63.13;94663.88;4946730;28;20223;-82
2021/11/22 04:57:42;;;;;;;33.97;20.65;;;6.70;77.00;;;5.79;63.45;94652.97;4943422;28;20306;-84
2021/11/22 05:00:13;;;;;;;36.00;20.15;;;6.60;76.90;;;5.81;62.94;94658.84;4943292;28;20234;-83
2021/11/22 05:02:40;;;;;;;35.38;20.23;;;6.60;76.90;;;5.79;63.21;94658.19;4959352;28;20302;-83
2021/11/22 05:05:08;;;;;;;34.75;20.55;;;6.60;76.90;;;5.82;63.11;94663.03;4940262;28;20233;-84
2021/11/22 05:07:37;;;;;;;37.38;21.02;;;6.60;76.90;;;5.82;63.13;94660.44;4938864;28;20202;-83
2021/11/22 05:10:28;;;;;;;35.97;21.33;;;6.60;76.90;;;5.79;63.31;94658.19;4941478;28;20214;-83
2021/11/22 05:12:55;;;;;;;36.08;20.90;;;6.60;76.90;;;5.81;63.06;94658.00;4940352;28;20191;-83
2021/11/22 05:15:23;;;;;;;35.75;20.17;;;6.60;77.00;;;5.81;63.26;94656.22;4938177;28;20701;-83
2021/11/22 05:17:50;;;;;;;40.45;21.65;;;6.60;76.90;;;5.76;63.21;94648.09;4938107;28;20257;-83
2021/11/22 05:20:17;;;;;;;37.88;21.75;;;6.60;77.00;;;5.80;63.06;94657.22;4922978;28;20222;-83
2021/11/22 05:22:50;;;;;;;35.55;21.42;;;6.60;77.00;;;5.76;63.33;94651.53;4926787;28;20209;-83
2021/11/22 05:25:17;;;;;;;36.72;19.77;;;6.60;77.00;;;5.81;62.92;94658.00;4925175;28;20317;-82
2021/11/22 05:27:45;;;;;;;39.13;21.40;;;6.60;77.00;;;5.82;63.60;94664.84;4942118;28;20729;-84
2021/11/22 05:30:13;;;;;;;34.20;20.48;;;6.60;77.00;;;5.80;63.10;94665.00;4942118;28;20233;-83
2021/11/22 05:32:40;;;;;;;34.88;19.95;;;6.60;77.10;;;5.85;63.19;94674.94;4941627;28;20207;-83
2021/11/22 05:35:07;;;;;;;39.65;22.73;;;6.60;77.00;;;5.84;63.52;94676.72;4926191;28;20767;-84
2021/11/22 05:37:36;;;;;;;39.65;22.38;;;6.70;77.20;;;5.85;63.41;94680.94;4941742;28;20203;-84
2021/11/22 05:40:05;;;;;;;35.97;21.65;;;6.60;77.10;;;5.83;63.65;94669.06;4941893;28;20237;-83
2021/11/22 05:42:32;;;;;;;39.88;23.17;;;6.60;77.10;;;5.83;63.30;94669.06;4941805;28;20207;-82
2021/11/22 05:44:59;;;;;;;40.67;22.02;;;6.60;77.10;;;5.85;63.19;94677.53;4942113;28;20298;-83
2021/11/22 05:47:28;;;;;;;39.05;20.58;;;6.70;77.20;;;5.85;63.36;94680.94;4941276;28;20301;-84
2021/11/22 05:50:02;;;;;;;33.05;20.17;;;6.60;77.00;;;5.83;63.51;94671.66;4940016;28;20230;-81
2021/11/22 05:52:32;;;;;;;34.50;18.63;;;6.60;77.00;;;5.85;63.57;94680.13;4946772;28;20214;-83
2021/11/22 05:55:00;;;;;;;37.08;21.00;;;6.60;77.10;;;5.85;63.36;94680.13;4937201;28;20214;-82
2021/11/22 05:57:27;;;;;;;35.65;21.42;;;6.70;77.10;;;5.89;63.17;94689.22;4932462;28;20214;-82
2021/11/22 05:59:54;;;;;;;38.25;21.55;;;6.60;77.10;;;5.92;63.09;94687.09;4943162;28;20567;-82
2021/11/22 06:02:22;;;;;;;37.08;21.42;;;6.70;77.10;;;5.88;63.27;94690.19;4936211;28;20199;-82
2021/11/22 06:04:49;;;;;;;35.75;20.98;;;6.70;77.20;;;5.91;63.30;94703.69;4929894;28;20270;-84
2021/11/22 06:07:17;;;;;;;37.50;21.92;;;6.70;77.20;;;5.93;62.95;94706.13;4939168;28;20195;-81
2021/11/22 06:09:44;;;;;;;35.08;21.60;;;6.70;77.20;;;5.90;63.16;94702.06;4938571;28;20226;-82
2021/11/22 06:12:11;;;;;;;34.63;20.40;;;6.70;77.10;;;5.95;63.26;94711.97;4939248;28;20202;-82
2021/11/22 06:14:38;;;;;;;32.80;19.00;;;6.70;77.10;;;5.92;63.01;94710.53;4924141;28;20739;-82
2021/11/22 06:17:05;;;;;;;34.28;20.58;;;6.70;77.10;;;5.93;63.13;94714.75;4940224;28;20202;-82
2021/11/22 06:19:33;;;;;;;37.72;20.90;;;6.70;77.20;;;5.92;62.95;94712.31;4940746;28;20242;-83
2021/11/22 06:22:01;;;;;;;31.67;18.45;;;6.70;77.20;;;6.02;63.15;94725.19;4940441;28;20221;-81
2021/11/22 06:24:28;;;;;;;31.98;19.23;;;6.80;77.20;;;6.02;63.13;94719.97;4945551;28;20246;-80
2021/11/22 06:26:56;;;;;;;30.48;18.50;;;6.80;77.30;;;6.06;63.08;94735.06;4956762;28;20293;-81
2021/11/22 06:29:24;;;;;;;29.67;19.63;;;6.80;77.20;;;6.09;62.93;94731.31;4945075;28;20247;-81
2021/11/22 06:31:51;;;;;;;32.45;20.00;;;6.80;77.20;;;6.06;63.08;94732.47;4940942;28;20198;-80
2021/11/22 06:34:19;;;;;;;37.25;22.10;;;6.80;77.20;;;6.05;62.97;94736.06;4939636;28;20222;-80
2021/11/22 06:36:46;;;;;;;37.65;21.88;;;6.80;77.20;;;6.08;63.29;94738.31;4939853;28;20233;-80
2021/11/22 06:39:13;;;;;;;37.13;20.95;;;6.80;77.20;;;6.10;63.32;94745.94;4940485;28;20688;-81
2021/11/22 06:41:41;;;;;;;34.08;20.63;;;6.80;77.10;;;6.11;63.19;94758.00;4937333;29;20230;-81
2021/11/22 06:44:08;;;;;;;34.53;20.30;;;6.90;77.20;;;6.13;63.23;94757.81;4937344;29;20274;-79
2021/11/22 06:46:35;;;;;;;44.35;24.55;;;6.90;77.20;;;6.08;63.79;94763.56;4953387;28;20207;-80
2021/11/22 06:49:03;;;;;;;39.35;22.65;;;6.90;77.20;;;6.10;63.29;94772.00;4952920;28;20219;-80
2021/11/22 06:51:30;;;;;;;37.83;22.65;;;6.90;77.20;;;6.04;63.46;94757.88;4938743;28;20203;-80
2021/11/22 06:53:58;;;;;;;33.05;20.70;;;6.90;77.20;;;6.10;63.22;94769.38;4939637;28;20234;-80
2021/11/22 06:56:25;;;;;;;40.10;23.80;;;6.90;77.20;;;6.07;63.42;94770.53;4951135;28;20649;-79
2021/11/22 06:58:52;;;;;;;38.63;23.45;;;6.90;77.30;;;6.03;63.88;94778.84;4936572;28;20262;-80
2021/11/22 07:01:20;;;;;;;39.75;22.58;;;6.90;77.40;;;6.05;63.88;94782.94;4933782;28;20191;-79
2021/11/22 07:03:47;;;;;;;37.63;22.27;;;6.90;77.40;;;6.05;63.96;94788.13;4945126;28;20223;-79
2021/11/22 07:06:14;;;;;;;42.15;22.83;;;6.90;77.40;;;6.07;63.79;94793.16;4921232;29;20234;-79
2021/11/22 07:08:42;;;;;;;40.08;22.45;;;6.90;77.40;;;6.05;64.04;94795.94;4932638;29;20212;-80
2021/11/22 07:11:09;;;;;;;36.92;22.15;;;6.90;77.50;;;6.07;64.00;94798.38;4952921;28;20631;-80
2021/11/22 07:13:37;;;;;;;37.15;21.98;;;6.90;77.50;;;6.07;64.08;94793.97;4938497;28;20222;-79
2021/11/22 07:16:05;;;;;;;42.67;23.67;;;6.90;77.50;;;6.04;64.20;94802.13;4936916;28;20342;-80
2021/11/22 07:18:32;;;;;;;38.15;22.88;;;6.90;77.60;;;6.05;64.16;94803.75;4939280;28;20250;-80
2021/11/22 07:20:59;;;;;;;40.05;21.95;;;6.90;77.60;;;6.07;64.39;94812.19;4953973;28;20289;-80
2021/11/22 07:23:27;;;;;;;37.30;21.55;;;6.90;77.60;;;6.07;64.38;94799.19;4935400;28;20611;-80
2021/11/22 07:25:56;;;;;;;38.35;22.95;;;6.90;77.60;;;6.06;64.33;94813.19;4929807;28;20668;-80
2021/11/22 07:28:24;;;;;;;38.20;22.58;;;6.90;77.70;;;6.07;64.27;94811.41;4943753;28;20285;-80
2021/11/22 07:30:52;;;;;;;35.97;21.67;;;6.90;77.60;;;6.09;64.13;94812.84;4946113;28;20578;-80
2021/11/22 07:33:19;;;;;;;33.33;20.13;;;6.90;77.70;;;6.09;64.22;94812.03;4929277;28;20473;-80
2021/11/22 07:35:48;;;;;;;35.38;20.70;;;6.90;77.70;;;6.17;63.96;94819.03;4945505;28;20195;-80
2021/11/22 07:38:15;;;;;;;32.30;20.00;;;6.90;77.70;;;6.21;63.81;94826.34;4943791;28;20685;-80
2021/11/22 07:40:43;;;;;;;33.85;19.38;;;6.90;77.70;;;6.25;63.79;94817.22;4933480;28;20234;-80
2021/11/22 07:43:10;;;;;;;30.55;18.55;;;6.90;77.70;;;6.26;63.92;94815.41;4936283;28;20245;-80
2021/11/22 07:45:38;;;;;;;29.73;18.20;;;6.90;77.70;;;6.36;63.66;94829.06;4933957;28;20223;-80
2021/11/22 07:48:05;;;;;;;34.88;20.17;;;7.00;77.80;;;6.39;63.84;94830.50;4938299;28;20749;-80
2021/11/22 07:50:33;;;;;;;32.38;19.80;;;7.00;77.80;;;6.40;63.86;94824.34;4939229;28;20281;-80
2021/11/22 07:53:00;;;;;;;34.75;20.65;;;7.10;77.90;;;6.46;63.59;94835.84;4938237;28;20646;-80
2021/11/22 07:55:29;;;;;;;32.47;20.00;;;7.10;77.80;;;6.49;63.54;94828.50;4937272;28;20259;-80
2021/11/22 07:57:57;;;;;;;31.63;18.98;;;7.10;77.80;;;6.56;63.71;94831.28;4940379;28;20201;-79
2021/11/22 08:00:26;;;;;;;32.70;19.77;;;7.10;77.80;;;6.61;63.75;94836.78;4941397;28;20278;-79
2021/11/22 08:02:54;;;;;;;28.98;17.65;;;7.20;77.90;;;6.63;63.73;94827.00;4945497;28;20218;-80
2021/11/22 08:05:23;;;;;;;28.05;17.77;;;7.30;78.00;;;6.74;63.68;94836.25;4941272;28;20218;-79
2021/11/22 08:07:54;;;;;;;32.38;18.30;;;7.30;78.00;;;6.79;63.71;94836.56;4947335;28;20257;-80
2021/11/22 08:12:53;;;;;;;31.98;18.13;;;7.40;78.10;;;6.97;63.36;94845.91;4929342;28;20261;-80
2021/11/22 08:15:21;;;;;;;29.88;18.95;;;7.40;78.20;;;7.07;63.38;94845.69;4958192;28;20684;-80
2021/11/22 08:17:49;;;;;;;31.85;19.48;;;7.50;78.30;;;7.16;63.69;94844.69;4957858;28;20313;-80
2021/11/22 08:20:18;;;;;;;35.33;19.85;;;7.60;78.30;;;7.27;63.65;94852.09;4934702;28;20262;-80
2021/11/22 08:22:47;;;;;;;32.47;19.13;;;7.70;78.30;;;7.35;63.34;94854.66;4957149;28;20207;-80
2021/11/22 08:25:17;;;;;;;29.75;17.83;;;7.70;78.30;;;7.44;63.52;94858.03;4941206;28;20230;-79
2021/11/22 08:27:44;;;;;;;34.15;20.30;;;7.80;78.40;;;7.52;63.42;94867.63;4940933;28;20191;-81
2021/11/22 08:30:17;;;;;;;32.58;20.25;;;7.90;78.40;;;7.57;63.27;94867.06;4946429;28;20218;-80
2021/11/22 08:32:48;;;;;;;34.58;20.98;;;8.00;78.20;;;7.59;63.14;94875.56;4968002;28;20203;-80
2021/11/22 08:35:18;;;;;;;33.20;19.58;;;8.00;78.00;;;7.61;63.02;94871.78;4935996;28;21339;-80
2021/11/22 08:37:47;;;;;;;32.22;19.67;;;8.10;78.00;;;7.65;63.26;94878.28;4941173;28;20258;-79
2021/11/22 08:40:19;;;;;;;33.75;20.15;;;8.20;78.00;;;7.63;63.10;94876.81;4956505;28;20301;-79
2021/11/22 08:42:49;;;;;;;29.90;20.13;;;8.20;77.90;;;7.68;62.96;94888.38;4954207;28;20230;-80
2021/11/22 08:45:16;;;;;;;31.50;19.58;;;8.20;77.80;;;7.70;62.91;94896.03;4940055;28;20244;-79
2021/11/22 08:47:44;;;;;;;31.25;20.73;;;8.30;77.80;;;7.69;62.82;94890.00;4942580;28;20257;-79
2021/11/22 08:50:13;;;;;;;32.50;19.45;;;8.30;77.70;;;7.69;62.60;94899.63;4937199;28;20297;-79
2021/11/22 08:52:42;;;;;;;28.88;18.80;;;8.30;77.70;;;7.69;62.93;94894.41;4934875;28;20203;-79
2021/11/22 08:55:11;;;;;;;31.85;19.48;;;8.30;77.60;;;7.69;62.65;94894.41;4939408;28;20226;-80
2021/11/22 08:57:39;;;;;;;31.20;20.55;;;8.30;77.60;;;7.69;62.92;94908.28;4940675;28;20273;-80
2021/11/22 09:00:11;;;;;;;34.10;20.85;;;8.30;77.60;;;7.67;63.08;94907.63;4938928;28;20321;-80
2021/11/22 09:02:39;;;;;;;31.40;19.25;;;8.30;77.60;;;7.69;63.20;94910.88;4957345;28;20215;-79
2021/11/22 09:05:07;;;;;;;29.85;18.25;;;8.30;77.60;;;7.68;62.94;94909.25;4942428;28;20221;-80
2021/11/22 09:07:34;;;;;;;32.28;18.88;;;8.30;77.60;;;7.72;63.05;94908.91;4973597;28;20226;-79
2021/11/22 09:10:02;;;;;;;28.73;18.58;;;8.30;77.60;;;7.65;62.99;94912.22;4927058;28;20273;-80
2021/11/22 09:12:33;;;;;;;28.90;18.58;;;8.30;77.60;;;7.66;63.07;94913.81;4941725;28;20279;-80
2021/11/22 09:15:02;;;;;;;29.58;17.67;;;8.30;77.50;;;7.62;63.10;94920.38;4941843;28;20609;-79
2021/11/22 09:17:30;;;;;;;27.85;17.52;;;8.30;77.50;;;7.57;63.13;94914.06;4953144;28;20206;-80
2021/11/22 09:19:57;;;;;;;25.25;16.23;;;8.30;77.50;;;7.60;63.01;94924.16;4955039;28;20211;-80
2021/11/22 09:22:24;;;;;;;27.25;16.83;;;8.30;77.50;;;7.60;63.22;94924.97;4957096;28;20546;-80
2021/11/22 09:24:52;;;;;;;27.35;16.60;;;8.30;77.60;;;7.60;63.42;94927.56;4955117;28;20219;-80
2021/11/22 09:27:19;;;;;;;25.55;16.50;;;8.30;77.60;;;7.61;63.03;94923.97;4955329;28;20187;-80
2021/11/22 09:29:47;;;;;;;29.77;18.25;;;8.30;78.60;;;7.67;63.26;94930.31;4939562;28;20313;-79
2021/11/22 09:32:17;;;;;;;28.40;17.77;;;8.30;77.90;;;7.73;63.62;94929.63;4942567;28;20222;-79
2021/11/22 09:34:45;;;;;;;28.95;16.88;;;8.30;78.10;;;7.83;63.50;94929.41;4949552;28;20222;-80
2021/11/22 09:37:13;;;;;;;25.63;16.90;;;8.30;78.20;;;7.93;63.57;94929.16;4955161;28;20230;-80
2021/11/22 09:39:40;;;;;;;26.48;17.50;;;8.40;78.50;;;8.02;63.56;94928.13;4940639;28;20313;-79
2021/11/22 09:42:08;;;;;;;27.92;18.40;;;8.40;78.40;;;8.04;63.38;94920.91;4941414;28;20636;-79
2021/11/22 09:44:35;;;;;;;27.38;17.17;;;8.50;78.40;;;8.17;63.35;94928.16;4940298;28;21012;-80
2021/11/22 09:47:03;;;;;;;23.98;15.45;;;8.50;78.30;;;8.24;63.40;94939.53;4942720;28;20244;-79
2021/11/22 09:49:31;;;;;;;24.77;16.25;;;8.60;78.30;;;8.27;63.20;94941.78;4924677;28;20234;-79
2021/11/22 09:51:58;;;;;;;23.55;15.52;;;8.80;78.30;;;8.30;62.84;94951.06;4939999;28;20211;-80
2021/11/22 09:54:25;;;;;;;22.80;15.43;;;8.70;78.10;;;8.28;62.71;94947.84;4956058;28;20558;-79
2021/11/22 09:56:54;;;;;;;21.50;13.98;;;8.80;77.90;;;8.25;62.94;94942.94;4940578;28;20206;-79
2021/11/22 09:59:22;;;;;;;21.65;14.38;;;8.80;77.80;;;8.25;62.86;94951.59;4952163;28;20227;-79
2021/11/22 10:01:54;;;;;;;20.38;13.75;;;8.80;77.80;;;8.22;62.65;94944.09;4938213;28;20264;-80
2021/11/22 10:04:29;;;;;;;20.25;14.10;;;8.90;77.80;;;8.18;62.88;94943.66;4938011;28;20222;-80
2021/11/22 10:07:00;;;;;;;17.98;12.65;;;8.80;77.70;;;8.18;63.02;94943.66;4938889;28;20280;-79
2021/11/22 10:09:33;;;;;;;19.20;13.05;;;8.90;77.70;;;8.20;62.94;94946.06;4959147;28;20217;-79
2021/11/22 10:12:25;;;;;;;20.55;13.48;;;8.80;77.70;;;8.20;62.53;94942.66;4968051;28;20203;-79
2021/11/22 10:15:02;;;;;;;20.10;13.20;;;8.80;77.80;;;8.16;63.04;94937.78;4943051;28;20214;-79
2021/11/22 10:17:40;;;;;;;21.13;13.88;;;8.80;77.60;;;8.15;63.02;94945.78;4924178;28;20233;-78
2021/11/22 10:20:11;;;;;;;16.52;11.55;;;8.80;77.60;;;8.13;62.83;94940.75;4939508;28;20230;-80
2021/11/22 10:23:01;;;;;;;16.52;11.13;;;8.80;77.50;;;8.14;62.91;94944.16;4955485;28;20242;-79
2021/11/22 10:25:37;;;;;;;15.73;11.57;;;8.80;77.50;;;8.11;63.13;94942.72;4954192;28;20521;-79
2021/11/22 10:28:23;;;;;;;15.70;11.10;;;8.80;77.60;;;8.14;62.96;94944.16;4938040;28;20618;-79
2021/11/22 10:31:03;;;;;;;16.00;11.02;;;8.80;77.70;;;8.12;63.04;94949.56;4940383;28;20206;-79